Flugplatz Dachau-Gröbenried

Für EDMD sind keine METAR/TAF Berichte vorhanden.
Es werden die Flugwettermeldungen vom Flugplatz Oberpfaffenhofen in 19 km Entfernung angezeigt.

Bericht für EDMO

vom 14.12. um 00:20 UTC

Wind 16 kt aus 230°

Sichtweite 10 km oder mehr

bedeckt in 5000 ft

Temperatur 4.0°C

Taupunkt -2.0°C

Luftfeuchtigkeit 65%

Luftdruck 994 hPa

EDMO 140020Z AUTO 23016KT 9999 // OVC050/// 04/M02 Q0994
Keine Prognose (TAF) verfügbar.
Impressum